Time;durP1;ratioP1;P1;durP2;ratioP2;P2;SDS_P1;SDS_P2;PMS_P1;PMS_P2;Temp;Humidity;BMP_temperature;BMP_pressure;BME280_temperature;BME280_humidity;BME280_pressure;Samples;Min_cycle;Max_cycle;Signal;HPM_P1;HPM_P2
2023/05/21 00:02:16;;;;;;;10.02;6.28;;;;;;;14.77;100.00;164427.59;5070040;28;20094;-65
2023/05/21 00:04:44;;;;;;;19.60;10.23;;;;;;;14.75;100.00;164422.16;5068808;28;20060;-66
2023/05/21 00:07:10;;;;;;;18.13;9.32;;;;;;;14.76;100.00;164424.88;5070397;28;20447;-66
2023/05/21 00:09:37;;;;;;;11.63;5.47;;;;;;;14.74;100.00;164419.47;5068592;28;20064;-65
2023/05/21 00:12:06;;;;;;;13.73;7.00;;;;;;;14.77;100.00;164427.59;5073755;28;20025;-65
2023/05/21 00:14:32;;;;;;;12.68;7.22;;;;;;;14.76;100.00;164424.88;5072480;28;20036;-65
2023/05/21 00:16:57;;;;;;;9.63;6.70;;;;;;;14.74;100.00;164420.78;5073786;28;20479;-65
2023/05/21 00:19:22;;;;;;;13.80;6.78;;;;;;;14.68;100.00;164403.22;5072679;28;20040;-66
2023/05/21 00:21:48;;;;;;;8.63;4.35;;;;;;;14.68;100.00;164404.56;5073909;28;20521;-65
2023/05/21 00:24:13;;;;;;;6.20;4.70;;;;;;;14.65;100.00;164395.03;5072476;28;20032;-65
2023/05/21 00:26:39;;;;;;;5.65;4.60;;;;;;;14.61;100.00;164385.56;5073290;28;20027;-65
2023/05/21 00:29:04;;;;;;;5.95;4.35;;;;;;;14.60;100.00;164384.25;5072444;28;20036;-65
2023/05/21 00:31:30;;;;;;;5.82;4.43;;;;;;;14.58;100.00;164377.47;5074030;28;20089;-65
2023/05/21 00:33:56;;;;;;;6.15;5.07;;;;;;;14.55;100.00;164369.34;5071871;28;20040;-65
2023/05/21 00:36:22;;;;;;;22.15;10.00;;;;;;;14.52;100.00;164361.25;5073817;28;20035;-65
2023/05/21 00:38:49;;;;;;;11.38;5.65;;;;;;;14.43;100.00;164338.22;5072084;28;20041;-65
2023/05/21 00:41:15;;;;;;;26.25;9.15;;;;;;;14.48;100.00;164351.78;5073610;28;20033;-65
2023/05/21 00:43:43;;;;;;;8.73;4.88;;;;;;;14.50;100.00;164357.16;5071775;28;20123;-65
2023/05/21 00:46:15;;;;;;;22.83;11.20;;;;;;;14.52;100.00;164362.59;5073927;28;20039;-66
2023/05/21 00:48:41;;;;;;;15.82;8.20;;;;;;;14.55;100.00;164370.72;5071266;28;21138;-66
2023/05/21 00:51:07;;;;;;;10.40;6.70;;;;;;;14.51;100.00;164359.88;5073707;28;20029;-66
2023/05/21 00:53:34;;;;;;;17.35;7.75;;;;;;;14.48;100.00;164351.78;5071907;28;20098;-66
2023/05/21 00:56:00;;;;;;;8.15;5.07;;;;;;;14.48;100.00;164351.78;5073533;28;20383;-66
2023/05/21 00:58:26;;;;;;;20.75;8.35;;;;;;;14.46;100.00;164346.34;5072239;28;20024;-66
2023/05/21 01:00:54;;;;;;;5.85;4.00;;;;;;;14.38;100.00;164324.72;5073330;28;20503;-66
2023/05/21 01:03:21;;;;;;;7.60;5.10;;;;;;;14.42;100.00;164336.88;5073089;28;20036;-66
2023/05/21 01:05:47;;;;;;;10.85;6.50;;;;;;;14.43;100.00;164338.22;5071684;28;20225;-66
2023/05/21 01:08:13;;;;;;;6.50;5.13;;;;;;;14.38;100.00;164324.72;5073545;28;20020;-66
2023/05/21 01:10:39;;;;;;;16.20;7.15;;;;;;;14.37;100.00;164322.00;5071210;28;20068;-66
2023/05/21 01:13:04;;;;;;;5.28;4.38;;;;;;;14.32;100.00;164309.81;5073072;28;20039;-66
2023/05/21 01:15:30;;;;;;;9.57;6.63;;;;;;;14.26;100.00;164294.91;5071512;28;20419;-66
2023/05/21 01:17:55;;;;;;;29.58;10.10;;;;;;;14.21;100.00;164280.06;5072621;28;20021;-66
2023/05/21 01:20:23;;;;;;;16.02;8.45;;;;;;;14.15;100.00;164265.19;5071812;28;20056;-66
2023/05/21 01:22:53;;;;;;;5.95;4.47;;;;;;;14.10;100.00;164251.66;5071643;28;20021;-67
2023/05/21 01:25:18;;;;;;;31.40;11.02;;;;;;;14.06;100.00;164240.81;5071237;28;20040;-66
2023/05/21 01:27:44;;;;;;;14.95;6.53;;;;;;;14.04;100.00;164235.38;5072427;28;20035;-66
2023/05/21 01:30:10;;;;;;;9.45;5.28;;;;;;;13.98;100.00;164220.56;5071348;28;20048;-66
2023/05/21 01:33:11;;;;;;;15.15;6.55;;;;;;;13.95;100.00;164213.78;5072059;28;20020;-66
2023/05/21 01:36:03;;;;;;;16.50;7.70;;;;;;;13.91;100.00;164201.63;5071175;28;20037;-66
2023/05/21 01:38:46;;;;;;;11.38;6.20;;;;;;;13.89;100.00;164197.53;5070742;28;20030;-65
2023/05/21 01:41:14;;;;;;;10.57;5.35;;;;;;;13.87;100.00;164192.16;5072656;28;20530;-65
2023/05/21 01:43:41;;;;;;;;;;;;;;;13.86;100.00;164188.06;5071806;28;20079;-66
2023/05/21 01:46:09;;;;;;;20.00;9.18;;;;;;;13.82;100.00;164178.59;5072018;28;20333;-66
2023/05/21 01:48:35;;;;;;;20.80;7.57;;;;;;;13.80;100.00;164173.22;5070749;28;20016;-65
2023/05/21 01:51:03;;;;;;;17.20;6.45;;;;;;;13.77;100.00;164165.06;5072586;28;20031;-66
2023/05/21 01:53:28;;;;;;;;;;;;;;;13.76;100.00;164163.75;5070987;28;20558;-66
2023/05/21 01:55:54;;;;;;;12.67;6.63;;;;;;;13.76;100.00;164163.75;5072211;28;19996;-66
2023/05/21 01:58:20;;;;;;;21.65;8.98;;;;;;;13.74;100.00;164156.94;5072599;28;20021;-66
2023/05/21 02:00:45;;;;;;;17.08;6.85;;;;;;;13.71;100.00;164148.84;5070017;28;20603;-66
2023/05/21 02:03:13;;;;;;;12.45;6.10;;;;;;;13.58;100.00;164116.41;5072285;28;20028;-65
2023/05/21 02:05:39;;;;;;;12.93;6.53;;;;;;;13.64;100.00;164132.63;5070577;28;20040;-64
2023/05/21 02:08:07;;;;;;;11.18;6.13;;;;;;;13.61;100.00;164124.50;5071728;28;20082;-62
2023/05/21 02:10:32;;;;;;;19.53;10.17;;;;;;;13.57;100.00;164113.72;5070318;28;20041;-66
2023/05/21 02:12:58;;;;;;;6.10;5.45;;;;;;;13.56;100.00;164109.63;5071931;28;20039;-66
2023/05/21 02:15:23;;;;;;;14.63;8.77;;;;;;;13.56;100.00;164111.00;5070006;28;20036;-66
2023/05/21 02:17:50;;;;;;;22.38;12.15;;;;;;;13.53;100.00;164101.53;5071831;28;20027;-67
2023/05/21 02:20:15;;;;;;;16.63;8.35;;;;;;;13.49;100.00;164093.41;5070707;28;20032;-67
2023/05/21 02:22:43;;;;;;;21.17;9.35;;;;;;;13.44;100.00;164078.56;5071382;28;20059;-67
2023/05/21 02:25:10;;;;;;;9.43;6.47;;;;;;;13.41;100.00;164070.44;5070311;28;20044;-67
2023/05/21 02:27:37;;;;;;;19.67;10.05;;;;;;;13.35;100.00;164054.16;5071635;28;20112;-67
2023/05/21 02:30:04;;;;;;;18.42;9.27;;;;;;;13.32;100.00;164048.75;5070179;28;20143;-67
2023/05/21 02:32:31;;;;;;;26.15;12.98;;;;;;;13.28;100.00;164037.94;5071077;28;20107;-67
2023/05/21 02:34:57;;;;;;;10.23;5.80;;;;;;;13.23;100.00;164023.06;5069946;28;20040;-67
2023/05/21 02:37:24;;;;;;;14.60;7.72;;;;;;;13.11;100.00;163991.97;5071668;28;20020;-67
2023/05/21 02:39:49;;;;;;;19.90;7.68;;;;;;;13.12;100.00;163996.00;5069569;28;20032;-67
2023/05/21 02:42:15;;;;;;;29.75;9.32;;;;;;;13.08;100.00;163983.81;5071397;28;20032;-67
2023/05/21 02:44:40;;;;;;;12.35;7.18;;;;;;;13.02;100.00;163970.31;5069533;28;20453;-67
2023/05/21 02:47:07;;;;;;;13.57;7.43;;;;;;;13.00;100.00;163964.91;5071370;28;20043;-67
2023/05/21 02:49:32;;;;;;;14.13;8.23;;;;;;;12.99;100.00;163960.88;5069706;28;20040;-67
2023/05/21 02:51:57;;;;;;;18.25;8.32;;;;;;;12.96;100.00;163954.13;5071306;28;20395;-67
2023/05/21 02:54:23;;;;;;;18.15;9.15;;;;;;;12.91;100.00;163940.63;5069465;28;20036;-67
2023/05/21 02:56:48;;;;;;;18.10;8.65;;;;;;;12.88;100.00;163932.47;5071076;28;20036;-67
2023/05/21 02:59:13;;;;;;;19.10;8.77;;;;;;;12.85;100.00;163925.72;5069814;28;20049;-67
2023/05/21 03:01:40;;;;;;;14.35;8.18;;;;;;;12.81;100.00;163913.56;5070548;28;20050;-67
2023/05/21 03:04:05;;;;;;;17.10;7.38;;;;;;;12.79;100.00;163908.13;5069512;28;20036;-67
2023/05/21 03:06:31;;;;;;;9.20;5.78;;;;;;;12.75;100.00;163897.34;5070958;28;20043;-66
2023/05/21 03:08:56;;;;;;;12.88;7.40;;;;;;;12.69;100.00;163883.84;5069215;28;20564;-67
2023/05/21 03:11:22;;;;;;;21.98;9.15;;;;;;;12.66;100.00;163875.72;5071151;28;20021;-66
2023/05/21 03:13:47;;;;;;;19.45;9.75;;;;;;;12.64;100.00;163870.28;5069221;28;20040;-66
2023/05/21 03:16:12;;;;;;;11.43;7.50;;;;;;;12.62;100.00;163864.88;5070637;28;20533;-65
2023/05/21 03:18:38;;;;;;;10.70;7.30;;;;;;;12.61;100.00;163862.22;5069443;28;20025;-65
2023/05/21 03:21:04;;;;;;;9.02;7.53;;;;;;;12.50;100.00;163833.84;5071156;28;20352;-65
2023/05/21 03:23:30;;;;;;;11.70;7.53;;;;;;;12.55;100.00;163845.97;5068898;28;20033;-65
2023/05/21 03:25:56;;;;;;;19.65;9.55;;;;;;;12.54;100.00;163844.63;5071025;28;20422;-65
2023/05/21 03:28:22;;;;;;;20.60;10.07;;;;;;;12.52;100.00;163837.88;5071188;28;20020;-65
2023/05/21 03:30:48;;;;;;;25.92;8.60;;;;;;;12.51;100.00;163835.16;5068918;28;20045;-66
2023/05/21 03:33:15;;;;;;;39.97;9.95;;;;;;;12.47;100.00;163824.38;5070588;28;20032;-65
2023/05/21 03:35:40;;;;;;;16.63;7.72;;;;;;;12.45;100.00;163818.97;5069229;28;20043;-66
2023/05/21 03:38:05;;;;;;;21.17;9.18;;;;;;;12.34;100.00;163791.91;5069898;28;20025;-66
2023/05/21 03:40:31;;;;;;;15.05;10.27;;;;;;;12.42;100.00;163812.22;5069114;28;20074;-66
2023/05/21 03:42:56;;;;;;;20.83;8.65;;;;;;;12.37;100.00;163798.66;5070779;28;20032;-66
2023/05/21 03:45:21;;;;;;;31.80;11.43;;;;;;;12.42;100.00;163810.84;5069271;28;20503;-67
2023/05/21 03:47:48;;;;;;;27.88;10.48;;;;;;;12.41;100.00;163808.13;5074734;28;20086;-65
2023/05/21 03:50:13;;;;;;;24.40;12.02;;;;;;;12.43;100.00;163813.53;5073451;28;20098;-64
2023/05/21 03:52:38;;;;;;;18.00;9.73;;;;;;;12.43;100.00;163813.53;5074105;28;20017;-64
2023/05/21 03:55:04;;;;;;;19.00;10.05;;;;;;;12.43;100.00;163813.53;5073162;28;20494;-64
2023/05/21 03:57:30;;;;;;;36.15;13.35;;;;;;;12.43;100.00;163813.53;5074796;28;20052;-64
2023/05/21 03:59:57;;;;;;;26.65;11.13;;;;;;;12.44;100.00;163816.25;5072803;28;20071;-66
2023/05/21 04:02:24;;;;;;;8.43;6.93;;;;;;;12.44;100.00;163816.25;5074750;28;20062;-65
2023/05/21 04:04:50;;;;;;;13.00;7.35;;;;;;;12.46;100.00;163821.66;5072685;28;20045;-67
2023/05/21 04:07:18;;;;;;;18.40;9.73;;;;;;;12.46;100.00;163821.66;5074054;28;20024;-65
2023/05/21 04:09:43;;;;;;;17.20;8.57;;;;;;;12.33;100.00;163787.88;5072576;28;20644;-65
2023/05/21 04:12:08;;;;;;;23.00;11.73;;;;;;;12.49;100.00;163829.75;5074493;28;20024;-66
2023/05/21 04:14:36;;;;;;;18.15;10.20;;;;;;;12.49;100.00;163831.13;5072257;28;20086;-66
2023/05/21 04:17:03;;;;;;;20.80;10.40;;;;;;;12.49;100.00;163829.75;5074433;28;20032;-64
2023/05/21 04:19:28;;;;;;;25.60;10.93;;;;;;;12.50;100.00;163832.47;5072572;28;20132;-64
2023/05/21 04:21:54;;;;;;;17.75;11.32;;;;;;;12.52;100.00;163837.88;5073618;28;20356;-64
2023/05/21 04:24:21;;;;;;;21.30;13.43;;;;;;;12.49;100.00;163829.75;5072674;28;20083;-64
2023/05/21 04:26:46;;;;;;;18.05;11.70;;;;;;;12.53;100.00;163840.59;5074161;28;20024;-65
2023/05/21 04:29:12;;;;;;;24.70;13.35;;;;;;;12.50;100.00;163833.84;5072320;28;20044;-65
2023/05/21 04:31:37;;;;;;;17.63;11.02;;;;;;;12.57;100.00;163851.38;5073600;28;20448;-68
2023/05/21 04:34:03;;;;;;;26.77;12.20;;;;;;;12.59;100.00;163856.78;5072265;28;20040;-65
2023/05/21 04:36:29;;;;;;;20.23;12.05;;;;;;;12.59;100.00;163856.78;5073629;28;20024;-65
2023/05/21 04:38:54;;;;;;;14.65;8.90;;;;;;;12.63;100.00;163867.59;5071788;28;20036;-67
2023/05/21 04:41:20;;;;;;;13.90;8.77;;;;;;;12.65;100.00;163873.00;5074115;28;20039;-69
2023/05/21 04:43:46;;;;;;;15.43;8.93;;;;;;;12.67;100.00;163877.03;5071482;28;20039;-67
2023/05/21 04:46:11;;;;;;;14.70;9.75;;;;;;;12.73;100.00;163891.94;5073470;28;20044;-67
2023/05/21 04:48:36;;;;;;;19.38;11.68;;;;;;;12.73;100.00;163891.94;5071115;28;20027;-65
2023/05/21 04:51:04;;;;;;;15.32;9.38;;;;;;;12.75;100.00;163897.34;5072683;28;20029;-66
2023/05/21 04:53:29;;;;;;;13.50;12.10;;;;;;;12.77;100.00;163902.75;5072063;28;20103;-65
2023/05/21 04:55:55;;;;;;;18.00;12.27;;;;;;;12.76;100.00;163901.38;5073475;28;20046;-65
2023/05/21 04:58:20;;;;;;;13.80;9.10;;;;;;;12.79;100.00;163909.53;5072074;28;20364;-65
2023/05/21 05:00:45;;;;;;;13.15;8.20;;;;;;;12.83;100.00;163918.97;5069170;28;20107;-65
2023/05/21 05:03:12;;;;;;;14.55;9.25;;;;;;;12.87;100.00;163929.78;5071951;28;20036;-65
2023/05/21 05:05:38;;;;;;;12.05;7.10;;;;;;;12.90;100.00;163937.91;5071180;28;20047;-65
2023/05/21 05:08:05;;;;;;;12.32;9.27;;;;;;;12.92;100.00;163941.94;5073170;28;20513;-65
2023/05/21 05:10:30;;;;;;;14.98;9.40;;;;;;;12.96;100.00;163954.13;5070790;28;20043;-65
2023/05/21 05:12:56;;;;;;;14.10;9.38;;;;;;;12.99;100.00;163962.19;5072679;28;20021;-66
2023/05/21 05:15:21;;;;;;;13.85;8.95;;;;;;;13.05;100.00;163975.75;5071499;28;20049;-66
2023/05/21 05:17:49;;;;;;;17.02;8.38;;;;;;;13.09;100.00;163987.91;5070986;28;20033;-66
2023/05/21 05:20:15;;;;;;;14.27;10.38;;;;;;;13.09;100.00;163986.53;5070723;28;20037;-65
2023/05/21 05:22:40;;;;;;;10.07;8.05;;;;;;;13.10;100.00;163989.25;5071516;28;20039;-66
2023/05/21 05:25:06;;;;;;;15.27;10.32;;;;;;;13.17;100.00;164009.56;5069801;28;20036;-66
2023/05/21 05:27:31;;;;;;;11.52;8.68;;;;;;;13.25;100.00;164029.81;5071502;28;20036;-65
2023/05/21 05:29:57;;;;;;;21.95;8.73;;;;;;;13.32;100.00;164048.75;5070315;28;20518;-66
2023/05/21 05:32:22;;;;;;;13.95;9.13;;;;;;;13.33;100.00;164051.44;5071012;28;20040;-66
2023/05/21 05:34:47;;;;;;;13.20;10.23;;;;;;;13.40;100.00;164067.72;5069794;28;20048;-67
2023/05/21 05:37:13;;;;;;;10.30;7.75;;;;;;;13.42;100.00;164073.13;5069973;28;20391;-66
2023/05/21 05:39:38;;;;;;;13.38;7.90;;;;;;;13.47;100.00;164086.66;5069673;28;20044;-66
2023/05/21 05:42:04;;;;;;;12.25;9.32;;;;;;;13.44;100.00;164079.91;5071700;28;20511;-66
2023/05/21 05:44:29;;;;;;;15.30;8.77;;;;;;;13.55;100.00;164108.28;5070058;28;20414;-66
2023/05/21 05:46:55;;;;;;;11.95;7.38;;;;;;;13.66;100.00;164136.69;5071453;28;20498;-65
2023/05/21 05:49:20;;;;;;;8.75;7.05;;;;;;;13.70;100.00;164146.16;5069254;28;20043;-64
2023/05/21 05:51:45;;;;;;;10.40;8.30;;;;;;;13.73;100.00;164154.28;5071375;28;20025;-64
2023/05/21 05:54:10;;;;;;;14.68;9.10;;;;;;;13.70;100.00;164146.16;5069510;28;20565;-64
2023/05/21 05:56:36;;;;;;;13.00;9.45;;;;;;;13.66;100.00;164136.69;5071727;28;20060;-66
2023/05/21 05:59:01;;;;;;;18.15;9.10;;;;;;;13.68;100.00;164140.72;5069482;28;20044;-66
2023/05/21 06:01:27;;;;;;;8.82;7.72;;;;;;;13.77;100.00;164165.06;5070052;28;20086;-66
2023/05/21 06:03:52;;;;;;;10.00;8.50;;;;;;;13.85;100.00;164186.72;5070199;28;20419;-66
2023/05/21 06:06:18;;;;;;;9.40;6.90;;;;;;;13.89;100.00;164197.53;5071415;28;20017;-65
2023/05/21 06:08:43;;;;;;;9.85;8.57;;;;;;;13.95;100.00;164213.78;5068669;28;20025;-66
2023/05/21 06:11:09;;;;;;;15.88;10.68;;;;;;;13.98;100.00;164219.16;5071519;28;20133;-66
2023/05/21 06:13:35;;;;;;;8.98;7.25;;;;;;;13.99;100.00;164221.88;5069181;28;20413;-66
2023/05/21 06:16:00;;;;;;;15.90;9.57;;;;;;;13.99;100.00;164221.88;5070269;28;20025;-65
2023/05/21 06:18:26;;;;;;;12.82;7.65;;;;;;;13.97;100.00;164217.84;5070459;28;20033;-65
2023/05/21 06:20:51;;;;;;;8.05;7.25;;;;;;;13.99;100.00;164221.88;5070192;28;20067;-67
2023/05/21 06:23:17;;;;;;;12.18;6.65;;;;;;;14.04;100.00;164235.38;5070262;28;20036;-67
2023/05/21 06:25:42;;;;;;;10.95;7.45;;;;;;;14.01;100.00;164227.31;5069184;28;20042;-65
2023/05/21 06:28:07;;;;;;;16.42;8.35;;;;;;;13.89;100.00;164197.53;5070537;28;20035;-64
2023/05/21 06:30:33;;;;;;;11.60;7.55;;;;;;;13.98;100.00;164220.56;5067646;28;20040;-62
2023/05/21 06:32:58;;;;;;;14.13;8.65;;;;;;;14.02;100.00;164230.03;5070644;28;20029;-62
2023/05/21 06:35:23;;;;;;;11.23;8.20;;;;;;;14.07;100.00;164244.84;5069140;28;20376;-62
2023/05/21 06:37:49;;;;;;;11.00;7.57;;;;;;;14.09;100.00;164248.94;5069659;28;20097;-62
2023/05/21 06:40:14;;;;;;;11.18;7.93;;;;;;;14.24;100.00;164289.53;5068554;28;20051;-62
2023/05/21 06:42:40;;;;;;;11.25;8.02;;;;;;;14.26;100.00;164294.91;5070415;28;20029;-62
2023/05/21 06:45:05;;;;;;;10.60;7.63;;;;;;;14.36;100.00;164319.28;5067847;28;20040;-62
2023/05/21 06:47:31;;;;;;;14.45;9.43;;;;;;;14.41;100.00;164332.78;5070529;28;20021;-62
2023/05/21 06:49:57;;;;;;;13.70;7.85;;;;;;;14.38;100.00;164326.03;5068955;28;20399;-63
2023/05/21 06:52:22;;;;;;;19.92;10.23;;;;;;;14.43;100.00;164339.59;5069920;28;20016;-62
2023/05/21 06:54:48;;;;;;;9.70;6.43;;;;;;;14.47;100.00;164349.06;5069102;28;20039;-62
2023/05/21 06:57:14;;;;;;;12.43;8.50;;;;;;;14.46;100.00;164344.97;5070374;28;20101;-62
2023/05/21 06:59:40;;;;;;;16.08;9.20;;;;;;;14.51;100.00;164359.88;5068715;28;20040;-62
2023/05/21 07:02:05;;;;;;;11.13;7.57;;;;;;;14.56;100.00;164373.38;5069755;28;20048;-62
2023/05/21 07:04:31;;;;;;;14.32;7.80;;;;;;;14.55;100.00;164370.72;5068260;28;20356;-62
2023/05/21 07:06:56;;;;;;;10.98;7.88;;;;;;;14.68;100.00;164404.56;5070828;28;20029;-62
2023/05/21 07:09:21;;;;;;;14.82;10.98;;;;;;;14.75;100.00;164422.16;5068323;28;20032;-62
2023/05/21 07:11:47;;;;;;;16.10;7.80;;;;;;;14.82;100.00;164441.13;5070006;28;20025;-62
2023/05/21 07:14:12;;;;;;;12.63;8.50;;;;;;;15.11;100.00;164516.91;5069142;28;20515;-62
2023/05/21 07:16:38;;;;;;;10.07;7.95;;;;;;;15.28;100.00;164561.56;5069121;28;20032;-62
2023/05/21 07:19:03;;;;;;;11.93;8.48;;;;;;;15.23;100.00;164549.38;5068795;28;20047;-62
2023/05/21 07:21:28;;;;;;;8.43;6.88;;;;;;;15.16;100.00;164530.41;5069123;28;20503;-61
2023/05/21 07:23:54;;;;;;;13.25;9.05;;;;;;;15.21;100.00;164542.59;5068036;28;20036;-62
2023/05/21 07:26:20;;;;;;;10.77;7.03;;;;;;;15.16;100.00;164530.41;5068600;28;20411;-62
2023/05/21 07:28:45;;;;;;;10.85;6.53;;;;;;;15.35;100.00;164579.16;5067823;28;20073;-61
2023/05/21 07:31:13;;;;;;;11.07;9.20;;;;;;;15.38;100.00;164587.25;5069047;28;20024;-62
2023/05/21 07:33:39;;;;;;;14.85;8.30;;;;;;;15.55;100.00;164633.31;5068390;28;20064;-62
2023/05/21 07:36:04;;;;;;;22.33;9.07;;;;;;;15.70;100.00;164671.22;5069782;28;20093;-62
2023/05/21 07:38:30;;;;;;;10.50;9.25;;;;;;;15.52;100.00;164623.84;5067392;28;20395;-61
2023/05/21 07:40:56;;;;;;;10.43;8.15;;;;;;;15.47;100.00;164611.66;5069232;28;20070;-61
2023/05/21 07:43:21;;;;;;;8.43;7.05;;;;;;;15.45;100.00;164604.88;5069506;28;20033;-62
2023/05/21 07:45:46;;;;;;;15.70;9.27;;;;;;;15.62;100.00;164649.53;5068110;28;20044;-62
2023/05/21 07:48:13;;;;;;;9.30;8.35;;;;;;;15.65;100.00;164657.69;5069450;28;20459;-62
2023/05/21 07:50:38;;;;;;;13.13;8.85;;;;;;;15.68;100.00;164665.78;5068286;28;20549;-62
2023/05/21 07:53:03;;;;;;;15.38;9.07;;;;;;;15.71;100.00;164673.94;5069340;28;20036;-61
2023/05/21 07:55:29;;;;;;;16.85;8.73;;;;;;;15.77;100.00;164688.84;5068292;28;20036;-62
2023/05/21 07:57:55;;;;;;;11.48;9.02;;;;;;;15.76;100.00;164687.47;5069820;28;20375;-62
2023/05/21 08:00:22;;;;;;;16.92;9.52;;;;;;;15.88;100.00;164718.66;5068220;28;20056;-63
2023/05/21 08:02:48;;;;;;;9.43;7.87;;;;;;;15.91;100.00;164725.41;5069940;28;20039;-63
2023/05/21 08:05:15;;;;;;;14.82;10.68;;;;;;;15.99;100.00;164747.09;5067944;28;20470;-63
2023/05/21 08:07:40;;;;;;;9.73;8.80;;;;;;;16.08;100.00;164771.47;5069536;28;20025;-63
2023/05/21 08:10:06;;;;;;;19.77;7.95;;;;;;;16.15;100.00;164790.44;5068547;28;20048;-63
2023/05/21 08:12:32;;;;;;;19.75;9.82;;;;;;;16.16;100.00;164793.16;5069392;28;20055;-63
2023/05/21 08:14:58;;;;;;;10.13;8.10;;;;;;;16.27;100.00;164820.25;5068642;28;20070;-63
2023/05/21 08:17:23;;;;;;;18.85;9.85;;;;;;;16.26;100.00;164817.53;5070114;28;20032;-63
2023/05/21 08:19:49;;;;;;;13.00;8.85;;;;;;;16.39;100.00;164852.75;5068097;28;20040;-63
2023/05/21 08:22:14;;;;;;;21.27;10.32;;;;;;;16.39;100.00;164851.38;5070349;28;20033;-63
2023/05/21 08:24:40;;;;;;;11.80;8.80;;;;;;;16.54;100.00;164892.00;5068350;28;20489;-62
2023/05/21 08:27:06;;;;;;;9.63;8.63;;;;;;;16.51;100.00;164883.91;5069843;28;20417;-63
2023/05/21 08:29:32;;;;;;;16.02;9.68;;;;;;;16.66;100.00;164923.16;5068484;28;20082;-62
2023/05/21 08:31:57;;;;;;;11.30;10.13;;;;;;;16.68;100.00;164928.59;5071319;28;20028;-63
2023/05/21 08:34:23;;;;;;;10.77;8.98;;;;;;;16.77;100.00;164951.59;5071752;28;20037;-63
2023/05/21 08:36:48;;;;;;;10.60;8.07;;;;;;;16.76;100.00;164950.28;5073538;28;20032;-63
2023/05/21 08:39:14;;;;;;;14.43;7.88;;;;;;;16.72;100.00;164939.41;5072053;28;20495;-63
2023/05/21 08:41:41;;;;;;;16.20;8.70;;;;;;;16.70;100.00;164934.03;5073127;28;20048;-63
2023/05/21 08:44:10;;;;;;;11.18;9.98;;;;;;;16.88;100.00;164980.06;5071570;28;20074;-63
2023/05/21 08:46:39;;;;;;;25.70;10.00;;;;;;;16.88;100.00;164981.44;5072508;28;20094;-62
2023/05/21 08:49:09;;;;;;;;;;;;;;;16.99;100.00;165008.56;5071625;28;20120;-63
2023/05/21 08:51:35;;;;;;;12.80;9.40;;;;;;;17.17;100.00;165055.97;5073274;28;19909;-64
2023/05/21 08:54:01;;;;;;;14.73;10.25;;;;;;;17.33;100.00;165098.03;5071725;28;20517;-63
2023/05/21 08:56:29;;;;;;;16.60;12.10;;;;;;;17.47;100.00;165134.59;5072630;28;20056;-63
2023/05/21 08:58:55;;;;;;;12.52;8.98;;;;;;;17.60;100.00;165169.84;5071959;28;20415;-63
2023/05/21 09:01:21;;;;;;;16.27;10.80;;;;;;;17.72;100.00;165202.38;5073140;28;20048;-63
2023/05/21 09:03:49;;;;;;;11.82;9.15;;;;;;;-146.58;100.00;69501.63;5071066;28;20029;-64
2023/05/21 09:06:15;;;;;;;10.98;9.35;;;;;;;-146.58;100.00;69501.63;5073227;28;20394;-64
2023/05/21 09:08:46;;;;;;;12.15;10.43;;;;;;;-146.58;100.00;69501.63;5071183;28;20021;-63
2023/05/21 09:11:13;;;;;;;9.50;8.13;;;;;;;-146.58;100.00;69501.63;5072665;28;20028;-63
2023/05/21 09:13:40;;;;;;;13.88;8.63;;;;;;;-146.58;100.00;69501.63;5071170;28;20024;-64
2023/05/21 09:16:06;;;;;;;16.85;14.02;;;;;;;-146.58;100.00;69501.63;5072656;28;20490;-64
2023/05/21 09:18:31;;;;;;;15.70;10.85;;;;;;;18.88;100.00;165506.13;5070337;28;20033;-63
2023/05/21 09:20:58;;;;;;;13.07;10.50;;;;;;;18.82;100.00;165489.84;5071570;28;20025;-63
2023/05/21 09:23:27;;;;;;;10.52;8.95;;;;;;;19.09;100.00;165560.47;5072771;28;20032;-64
2023/05/21 09:25:52;;;;;;;16.23;10.77;;;;;;;19.29;100.00;165614.72;5070629;28;20135;-63
2023/05/21 09:28:18;;;;;;;17.52;11.43;;;;;;;19.18;100.00;165584.84;5072224;28;20028;-64
2023/05/21 09:30:44;;;;;;;16.55;11.68;;;;;;;19.12;100.00;165569.97;5070745;28;20041;-63
2023/05/21 09:33:10;;;;;;;14.40;12.30;;;;;;;19.06;100.00;165552.31;5071679;28;20048;-63
2023/05/21 09:35:36;;;;;;;15.88;11.25;;;;;;;19.24;100.00;165599.78;5069910;28;20051;-64
2023/05/21 09:38:07;;;;;;;19.83;14.32;;;;;;;19.17;100.00;165582.19;5071980;28;20098;-63
2023/05/21 09:40:34;;;;;;;11.75;10.55;;;;;;;19.24;100.00;165599.78;5069746;28;20040;-64
2023/05/21 09:42:59;;;;;;;18.75;11.63;;;;;;;19.71;100.00;165723.25;5071857;28;20032;-64
2023/05/21 09:45:26;;;;;;;13.68;11.80;;;;;;;19.96;100.00;165789.78;5070901;28;20111;-64
2023/05/21 09:47:53;;;;;;;14.82;13.10;;;;;;;19.91;100.00;165777.63;5071435;28;20120;-64
2023/05/21 09:50:20;;;;;;;14.95;12.18;;;;;;;19.82;100.00;165753.13;5070783;28;20037;-64
2023/05/21 09:52:46;;;;;;;13.70;11.00;;;;;;;19.97;100.00;165793.88;5069401;28;20025;-64
2023/05/21 09:55:13;;;;;;;16.30;12.77;;;;;;;19.96;100.00;165791.16;5069824;28;20482;-64
2023/05/21 09:57:43;;;;;;;22.23;14.52;;;;;;;19.96;100.00;165789.78;5061990;28;20380;-63
2023/05/21 10:00:20;;;;;;;13.77;12.20;;;;;;;20.16;100.00;165842.72;5058109;28;20056;-63
2023/05/21 10:02:46;;;;;;;19.50;13.93;;;;;;;20.28;100.00;165873.94;5069824;28;20071;-63
2023/05/21 10:05:13;;;;;;;17.75;12.07;;;;;;;20.21;100.00;165856.31;5070400;28;20048;-63
2023/05/21 10:07:41;;;;;;;21.25;11.20;;;;;;;20.47;100.00;165922.84;5062723;28;20033;-63
2023/05/21 10:10:10;;;;;;;18.15;11.45;;;;;;;20.73;100.00;165992.13;5050015;28;20051;-63
2023/05/21 10:12:38;;;;;;;14.88;13.40;;;;;;;20.90;100.00;166038.25;5051560;28;20056;-62
2023/05/21 10:15:08;;;;;;;22.08;15.68;;;;;;;20.88;100.00;166031.47;5063986;28;20525;-63
2023/05/21 10:17:34;;;;;;;13.00;10.30;;;;;;;21.38;100.00;166163.19;5070868;28;20035;-63
2023/05/21 10:20:00;;;;;;;20.17;14.10;;;;;;;21.31;100.00;166144.19;5064700;28;20044;-63
2023/05/21 10:22:26;;;;;;;15.88;11.55;;;;;;;21.21;100.00;166119.75;5051620;28;20025;-63
2023/05/21 10:24:53;;;;;;;16.77;11.43;;;;;;;21.47;100.00;166187.66;5049777;28;20040;-63
2023/05/21 10:27:18;;;;;;;18.65;11.88;;;;;;;21.83;100.00;166282.78;5051786;28;20092;-63
2023/05/21 10:29:45;;;;;;;15.75;12.45;;;;;;;21.94;100.00;166309.94;5063558;28;20054;-63
2023/05/21 10:32:12;;;;;;;14.52;11.90;;;;;;;21.95;100.00;166312.66;5051160;28;20021;-63
2023/05/21 10:34:37;;;;;;;16.43;11.40;;;;;;;21.87;100.00;166293.63;5060026;28;20044;-63
2023/05/21 10:37:03;;;;;;;14.25;12.50;;;;;;;21.96;100.00;166315.38;5060827;28;21087;-63
2023/05/21 10:39:30;;;;;;;17.33;13.27;;;;;;;21.95;100.00;166312.66;5059014;28;20049;-63
2023/05/21 10:42:39;;;;;;;15.35;12.32;;;;;;;21.62;100.00;166225.75;5035156;28;20025;-63
2023/05/21 10:45:42;;;;;;;16.13;12.52;;;;;;;21.03;100.00;166070.88;5043990;28;20041;-63
2023/05/21 10:48:41;;;;;;;16.08;14.38;;;;;;;21.38;100.00;166163.19;5050520;28;20041;-63
2023/05/21 10:51:19;;;;;;;14.23;11.93;;;;;;;21.12;100.00;166093.94;5049646;28;20069;-63
2023/05/21 10:54:12;;;;;;;16.67;12.23;;;;;;;21.51;100.00;166198.50;5049059;28;20051;-63
2023/05/21 10:56:43;;;;;;;16.33;11.48;;;;;;;21.77;100.00;166265.09;5050586;28;20481;-63
2023/05/21 10:59:11;;;;;;;15.80;11.85;;;;;;;21.84;100.00;166285.50;5054155;28;20136;-62
2023/05/21 11:01:38;;;;;;;15.10;11.38;;;;;;;21.90;100.00;166299.09;5068527;28;20098;-62
2023/05/21 11:04:06;;;;;;;16.90;12.60;;;;;;;21.93;100.00;166307.25;5064195;28;20048;-62
2023/05/21 11:06:32;;;;;;;17.25;12.10;;;;;;;21.85;100.00;166288.25;5070469;28;20024;-63
2023/05/21 11:09:13;;;;;;;20.83;11.82;;;;;;;21.82;100.00;166280.06;5068798;28;20043;-63